| time (UTC) | temp C | wind direction | speed KPH | gust KPH | rain 1hr cm | rain 24hr cm | rain mn cm | humidity % | barometer mb |
| 20260906121547 | 23 | 104 | 0.0 | 0.0 | 0.00 | 0.00 | 0.00 | 35 | 1011.8 |
| 20260906120041 | 22 | 105 | 0.0 | 0.0 | 0.00 | 0.00 | 0.00 | 25 | 1011.5 |
| 20260906114538 | 22 | 105 | 0.0 | 0.0 | 0.00 | 0.00 | 0.00 | 38 | 1011.3 |
| 20260906113040 | 22 | 105 | 0.0 | 0.0 | 0.00 | 0.00 | 0.00 | 41 | 1011.0 |
| 20260906111535 | 22 | 105 | 0.0 | 0.0 | 0.00 | 0.00 | 0.00 | 47 | 1010.6 |
| 20260906110030 | 22 | 105 | 0.0 | 0.0 | 0.00 | 0.00 | 0.00 | 51 | 1010.5 |
| 20260906104532 | 22 | 106 | 0.0 | 0.0 | 0.00 | 0.00 | 0.00 | 50 | 1010.3 |
| 20260906103028 | 22 | 106 | 0.0 | 0.0 | 0.00 | 0.00 | 0.00 | 52 | 1010.3 |
| 20260906101528 | 22 | 106 | 0.0 | 0.0 | 0.00 | 0.00 | 0.00 | 49 | 1010.1 |
| 20260906100027 | 22 | 106 | 0.0 | 0.0 | 0.00 | 0.00 | 0.00 | 58 | 1010.0 |
| 20260906094524 | 22 | 106 | 0.0 | 0.0 | 0.00 | 0.00 | 0.00 | 57 | 1010.0 |
| 20260906093023 | 22 | 106 | 0.0 | 0.0 | 0.00 | 0.00 | 0.00 | 60 | 1009.9 |
| 20260906091520 | 22 | 106 | 0.0 | 0.0 | 0.00 | 0.00 | 0.00 | 66 | 1009.8 |
| 20260906090018 | 22 | 106 | 0.0 | 0.0 | 0.00 | 0.00 | 0.00 | 69 | 1009.9 |
| 20260906084517 | 22 | 106 | 0.0 | 0.0 | 0.00 | 0.00 | 0.00 | 72 | 1009.8 |
| 20260906083015 | 23 | 106 | 0.0 | 0.0 | 0.00 | 0.00 | 0.00 | 74 | 1009.6 |
| 20260906081513 | 23 | 106 | 0.0 | 0.0 | 0.00 | 0.00 | 0.00 | 76 | 1009.6 |
| 20260906080023 | 23 | 106 | 0.0 | 0.0 | 0.00 | 0.00 | 0.00 | 77 | 1009.6 |
| 20260906074510 | 23 | 106 | 0.0 | 0.0 | 0.00 | 0.00 | 0.00 | 78 | 1009.8 |
| 20260906073008 | 23 | 106 | 0.0 | 0.0 | 0.00 | 0.00 | 0.00 | 79 | 1009.9 |
| 20260906071508 | 23 | 106 | 0.0 | 0.0 | 0.00 | 0.00 | 0.00 | 79 | 1009.8 |
| 20260906070006 | 23 | 106 | 0.0 | 0.0 | 0.00 | 0.00 | 0.00 | 79 | 1010.0 |
| 20260906064507 | 23 | 106 | 0.0 | 0.0 | 0.00 | 0.00 | 0.00 | 79 | 1009.9 |
| 20260906063005 | 23 | 106 | 0.0 | 0.0 | 0.00 | 0.00 | 0.00 | 79 | 1009.8 |
| 20260906061502 | 24 | 105 | 0.0 | 0.0 | 0.00 | 0.00 | 0.00 | 78 | 1010.1 |
| 20260906060001 | 24 | 106 | 0.0 | 0.0 | 0.00 | 0.00 | 0.00 | 79 | 1010.2 |
| 20260906054601 | 24 | 106 | 0.0 | 0.0 | 0.00 | 0.00 | 0.00 | 78 | 1010.1 |
| 20260906053107 | 25 | 107 | 0.0 | 4.8 | 0.00 | 0.00 | 0.00 | 78 | 1010.1 |
| 20260906051600 | 25 | 106 | 0.0 | 0.0 | 0.00 | 0.00 | 0.00 | 76 | 1010.2 |
| 20260906050054 | 26 | 106 | 3.2 | 11.3 | 0.00 | 0.00 | 0.00 | 74 | 1010.4 |
| 20260906044547 | 26 | 98 | 3.2 | 9.7 | 0.00 | 0.00 | 0.00 | 74 | 1010.4 |
| 20260906043046 | 27 | 90 | 0.0 | 6.4 | 0.00 | 0.00 | 0.00 | 74 | 1010.5 |
| 20260906041538 | 27 | 82 | 0.0 | 6.4 | 0.00 | 0.00 | 0.00 | 72 | 1010.2 |
| 20260906040036 | 27 | 84 | 1.6 | 9.7 | 0.00 | 0.00 | 0.00 | 72 | 1010.4 |
| 20260906034529 | 27 | 88 | 1.6 | 9.7 | 0.00 | 0.00 | 0.00 | 74 | 1010.5 |
| 20260906033028 | 27 | 310 | 0.0 | 0.0 | 0.00 | 0.00 | 0.00 | 73 | 1010.1 |
| 20260906031523 | 27 | 310 | 0.0 | 0.0 | 0.00 | 0.00 | 0.00 | 75 | 1010.0 |
| 20260906030022 | 27 | 310 | 0.0 | 0.0 | 0.00 | 0.00 | 0.00 | 75 | 1009.9 |
| 20260906024513 | 27 | 310 | 0.0 | 0.0 | 0.00 | 0.00 | 0.00 | 75 | 1009.6 |
| 20260906023009 | 28 | 310 | 0.0 | 0.0 | 0.00 | 0.00 | 0.00 | 71 | 1009.3 |
| 20260906021505 | 28 | 310 | 0.0 | 0.0 | 0.00 | 0.00 | 0.00 | 70 | 1009.2 |
| 20260906020108 | 30 | 310 | 0.0 | 0.0 | 0.00 | 0.00 | 0.00 | 69 | 1008.9 |
| 20260906014601 | 30 | 310 | 0.0 | 0.0 | 0.00 | 0.00 | 0.00 | 67 | 1008.8 |
| 20260906013103 | 30 | 310 | 0.0 | 0.0 | 0.00 | 0.00 | 0.00 | 66 | 1008.7 |
| 20260906011600 | 31 | 310 | 0.0 | 0.0 | 0.00 | 0.00 | 0.00 | 64 | 1008.7 |
| 20260906010044 | 31 | 310 | 0.0 | 0.0 | 0.00 | 0.00 | 0.00 | 62 | 1008.6 |
| 20260906004540 | 31 | 310 | 0.0 | 0.0 | 0.00 | 0.00 | 0.00 | 61 | 1008.8 |
| 20260906003036 | 32 | 310 | 0.0 | 0.0 | 0.00 | 0.00 | 0.00 | 60 | 1008.8 |
| 20260906001531 | 32 | 310 | 0.0 | 0.0 | 0.00 | 0.00 | 0.00 | 59 | 1008.8 |
| 20260906000044 | 32 | 310 | 0.0 | 1.6 | 0.00 | 0.00 | 0.00 | 59 | 1008.8 |
| 20260905234521 | 33 | 310 | 0.0 | 0.0 | 0.00 | 0.00 | 0.00 | 57 | 1008.8 |
| 20260905233017 | 33 | 315 | 0.0 | 0.0 | 0.00 | 0.00 | 0.00 | 57 | 1008.7 |
| 20260905231515 | 33 | 315 | 0.0 | 0.0 | 0.00 | 0.00 | 0.00 | 56 | 1008.8 |
| 20260905230008 | 34 | 315 | 0.0 | 0.0 | 0.00 | 0.00 | 0.00 | 54 | 1008.7 |
| 20260905224504 | 35 | 315 | 1.6 | 8.0 | 0.00 | 0.00 | 0.00 | 52 | 1008.6 |
| 20260905223100 | 36 | 319 | 0.0 | 4.8 | 0.00 | 0.00 | 0.00 | 48 | 1008.6 |
| 20260905221555 | 35 | 319 | 1.6 | 8.0 | 0.00 | 0.00 | 0.00 | 50 | 1008.6 |
| 20260905220051 | 35 | 319 | 0.0 | 0.0 | 0.00 | 0.00 | 0.00 | 53 | 1008.6 |
| 20260905214546 | 35 | 319 | 1.6 | 6.4 | 0.00 | 0.00 | 0.00 | 49 | 1008.7 |
| 20260905213042 | 36 | 319 | 0.0 | 0.0 | 0.00 | 0.00 | 0.00 | 50 | 1008.7 |
| 20260905211549 | 35 | 319 | 0.0 | 3.2 | 0.00 | 0.00 | 0.00 | 49 | 1008.8 |
| 20260905210033 | 36 | 319 | 0.0 | 1.6 | 0.00 | 0.00 | 0.00 | 50 | 1008.9 |
| 20260905204535 | 36 | 319 | 0.0 | 6.4 | 0.00 | 0.00 | 0.00 | 47 | 1009.1 |
| 20260905203024 | 36 | 325 | 0.0 | 9.7 | 0.00 | 0.00 | 0.00 | 45 | 1009.3 |
| 20260905201519 | 36 | 332 | 0.0 | 12.9 | 0.00 | 0.00 | 0.00 | 46 | 1009.6 |
| 20260905200025 | 36 | 9 | 0.0 | 8.0 | 0.00 | 0.00 | 0.00 | 45 | 1009.7 |
| 20260905194513 | 36 | 5 | 0.0 | 0.0 | 0.00 | 0.00 | 0.00 | 45 | 1009.9 |
| 20260905193009 | 37 | 5 | 0.0 | 4.8 | 0.00 | 0.00 | 0.00 | 45 | 1010.0 |
| 20260905191502 | 36 | 194 | 0.0 | 6.4 | 0.00 | 0.00 | 0.00 | 45 | 1010.4 |
| 20260905190057 | 37 | 325 | 0.0 | 3.2 | 0.00 | 0.00 | 0.00 | 44 | 1010.5 |
| 20260905184611 | 36 | 325 | 0.0 | 9.7 | 0.00 | 0.00 | 0.00 | 45 | 1010.6 |
| 20260905183051 | 36 | 321 | 0.0 | 9.7 | 0.00 | 0.00 | 0.00 | 48 | 1010.8 |
| 20260905181555 | 36 | 339 | 1.6 | 12.9 | 0.00 | 0.00 | 0.00 | 47 | 1011.0 |
| 20260905180045 | 36 | 295 | 0.0 | 8.0 | 0.00 | 0.00 | 0.00 | 49 | 1011.2 |
| 20260905174536 | 36 | 345 | 0.0 | 6.4 | 0.00 | 0.00 | 0.00 | 52 | 1011.4 |
| 20260905173033 | 35 | 322 | 1.6 | 14.5 | 0.00 | 0.00 | 0.00 | 51 | 1011.5 |
| 20260905171526 | 35 | 333 | 4.8 | 12.9 | 0.00 | 0.00 | 0.00 | 51 | 1011.8 |
| 20260905170022 | 35 | 92 | 0.0 | 4.8 | 0.00 | 0.00 | 0.00 | 53 | 1011.8 |
| 20260905164518 | 34 | 329 | 0.0 | 8.0 | 0.00 | 0.00 | 0.00 | 55 | 1011.9 |
| 20260905163012 | 34 | 223 | 1.6 | 6.4 | 0.00 | 0.00 | 0.00 | 55 | 1012.1 |
| 20260905161508 | 35 | 330 | 0.0 | 0.0 | 0.00 | 0.00 | 0.00 | 56 | 1012.2 |
| 20260905160004 | 35 | 328 | 0.0 | 1.6 | 0.00 | 0.00 | 0.00 | 58 | 1012.1 |
| 20260905154616 | 33 | 328 | 3.2 | 12.9 | 0.00 | 0.00 | 0.00 | 57 | 1012.4 |
| 20260905153102 | 33 | 329 | 0.0 | 6.4 | 0.00 | 0.00 | 0.00 | 58 | 1012.5 |
| 20260905151551 | 33 | 51 | 0.0 | 4.8 | 0.00 | 0.00 | 0.00 | 64 | 1012.6 |
| 20260905150047 | 32 | 53 | 0.0 | 1.6 | 0.00 | 0.00 | 0.00 | 66 | 1012.6 |
| 20260905144543 | 32 | 59 | 0.0 | 6.4 | 0.00 | 0.00 | 0.00 | 65 | 1012.7 |
| 20260905143038 | 31 | 60 | 0.0 | 4.8 | 0.00 | 0.00 | 0.00 | 70 | 1012.7 |
| 20260905141534 | 30 | 61 | 0.0 | 0.0 | 0.00 | 0.00 | 0.00 | 69 | 1012.7 |
| 20260905140030 | 29 | 225 | 0.0 | 0.0 | 0.00 | 0.00 | 0.00 | 71 | 1012.9 |
| 20260905134525 | 28 | 225 | 0.0 | 0.0 | 0.00 | 0.00 | 0.00 | 68 | 1012.9 |
| 20260905133035 | 27 | 302 | 0.0 | 0.0 | 0.00 | 0.00 | 0.00 | 62 | 1013.0 |
| 20260905131516 | 26 | 302 | 0.0 | 0.0 | 0.00 | 0.00 | 0.00 | 53 | 1013.0 |
| 20260905130014 | 26 | 269 | 0.0 | 0.0 | 0.00 | 0.00 | 0.00 | 30 | 1013.1 |
| 20260905124507 | 25 | 269 | 0.0 | 0.0 | 0.00 | 0.00 | 0.00 | 1 | 1013.1 |
| 20260905123002 | 23 | 269 | 0.0 | 0.0 | 0.00 | 0.00 | 0.00 | 1 | 1012.9 |